RJFY(METAR)
05/30 17:00
METAR RJFY 300800Z 08006KT 9999 -RA FEW008 SCT020 BKN050 22/17 Q1016
RMK 1ST008 3CU020 5SC050 A3000=
戻る
トップページへ戻る
IMOC Co,.Ltd.